Chemical Pioneer — KAFO — position and weather

sailwx.info

Track history (hours):
 
Tides and Currents Weather Stations Pressure Air Temp Water Temp Dewpoint Dewpoint Depression Visibility Wind Speed Wind Dir Waves Ship Positions

Chemical Pioneer

Owner: US Shipping Corp, Edison, NJ. More information available from US FCC via Universal Licensing System and Coast Guard Vessel Documentation Center.

Last reported at 2015-Mar-28 09:24 UTC. Time now 2015-Mar-30 14:13 UTC.
Position N 28°49' W 095°09'.

Type: Tanker. MMSI: 366032000.

Date/timePositionNaut miles runAvg speedWind from/ knotsBaromVisibWave heightAir tempDewpointWater temp
2015-Mar-28 09:24N 28°49' W 095°09'4013.9
2015-Mar-28 06:30N 29°06' W 094°28'1314.1
2015-Mar-28 05:33N 29°17' W 094°37'1312.8
2015-Mar-28 04:34N 29°24' W 094°49'1313.0
2015-Mar-28 03:33N 29°35' W 094°56'10 9.8
2015-Mar-28 02:33N 29°44' W 095°02'3 0.2
2015-Mar-27 13:17N 29°45' W 095°06'0 0.0
2015-Mar-26 23:33N 29°45' W 095°06'4 3.9
2015-Mar-26 22:33N 29°44' W 095°02'10 9.7
2015-Mar-26 21:33N 29°35' W 094°56'1111.1
2015-Mar-26 20:33N 29°26' W 094°50'7 6.5
2015-Mar-26 19:31N 29°21' W 094°44'0 0.0
2015-Mar-26 14:13N 29°21' W 094°44'0 0.1
2015-Mar-26 11:28N 29°21' W 094°44'0 0.0
2015-Mar-26 10:31N 29°21' W 094°44'0 0.0
2015-Mar-26 09:31N 29°21' W 094°44'0 0.0
2015-Mar-26 08:31N 29°21' W 094°44'0 0.0
2015-Mar-26 07:28N 29°21' W 094°44'0 0.0
2015-Mar-26 05:19N 29°21' W 094°44'0 0.0
2015-Mar-26 04:25N 29°21' W 094°44'0 0.1
2015-Mar-26 01:16N 29°21' W 094°44'0 0.1
2015-Mar-25 21:19N 29°21' W 094°44'6 7.6
2015-Mar-25 20:33N 29°22' W 094°51'4 3.7
2015-Mar-25 19:33N 29°22' W 094°55'0 0.0
2015-Mar-24 21:13N 29°22' W 094°55'2 2.2
2015-Mar-24 20:31N 29°22' W 094°53'31 6.1
2015-Mar-24 15:32N 29°09' W 094°22'  
2015-Mar-19 16:23N 25°18' W 079°60'2412.9
2015-Mar-19 14:34N 25°41' W 080°01'1615.5
2015-Mar-19 13:34N 25°57' W 080°02'10 8.8
2015-Mar-19 12:25N 26°06' W 080°07'0 0.0
2015-Mar-19 11:25N 26°06' W 080°07'0 0.0
2015-Mar-19 10:33N 26°06' W 080°07'0 0.0
2015-Mar-19 09:24N 26°06' W 080°07'0 0.0
2015-Mar-19 08:27N 26°06' W 080°07'0 0.0
2015-Mar-19 07:27N 26°06' W 080°07'0 0.0
2015-Mar-19 06:24N 26°06' W 080°07'0 0.0
2015-Mar-19 05:30N 26°06' W 080°07'0 0.0
2015-Mar-19 04:27N 26°06' W 080°07'0 0.0
2015-Mar-19 03:30N 26°06' W 080°07'0 0.0
2015-Mar-19 02:33N 26°06' W 080°07'0 0.0
2015-Mar-19 01:30N 26°06' W 080°07'0 0.0
2015-Mar-19 00:33N 26°06' W 080°07'0 0.0
2015-Mar-18 23:33N 26°06' W 080°07'0 0.0
2015-Mar-18 22:21N 26°06' W 080°07'0 0.0
2015-Mar-18 21:33N 26°06' W 080°07'0 0.0
2015-Mar-18 20:33N 26°06' W 080°07'0 0.0
2015-Mar-18 19:21N 26°06' W 080°07'0 0.0
2015-Mar-18 18:27N 26°06' W 080°07'0 0.0
2015-Mar-18 17:27N 26°06' W 080°07'0 0.0
2015-Mar-18 16:27N 26°06' W 080°07'0 0.0
2015-Mar-18 15:30N 26°06' W 080°07'0 0.0
2015-Mar-18 14:30N 26°06' W 080°07'0 0.0
2015-Mar-18 13:30N 26°06' W 080°07'0 0.0
2015-Mar-18 12:33N 26°06' W 080°07'0 0.0
2015-Mar-18 11:33N 26°06' W 080°07'0 0.0
2015-Mar-18 10:33N 26°06' W 080°07'  
Track history (hours):
 
Tides and Currents Weather Stations Pressure Air Temp Water Temp Dewpoint Dewpoint Depression Visibility Wind Speed Wind Dir Waves Ship Positions

Chemical Pioneer

Owner: US Shipping Corp, Edison, NJ. More information available from US FCC via Universal Licensing System and Coast Guard Vessel Documentation Center.

Last reported at 2015-Mar-28 09:24 UTC. Time now 2015-Mar-30 14:13 UTC.
Position N 28°49' W 095°09'.

Type: Tanker. MMSI: 366032000.

Date/timePositionNaut miles runAvg speedWind from/ knotsBaromVisibWave heightAir tempDewpointWater temp
2015-Mar-28 09:24N 28°49' W 095°09'4013.9
2015-Mar-28 06:30N 29°06' W 094°28'1314.1
2015-Mar-28 05:33N 29°17' W 094°37'1312.8
2015-Mar-28 04:34N 29°24' W 094°49'1313.0
2015-Mar-28 03:33N 29°35' W 094°56'10 9.8
2015-Mar-28 02:33N 29°44' W 095°02'3 0.2
2015-Mar-27 13:17N 29°45' W 095°06'0 0.0
2015-Mar-26 23:33N 29°45' W 095°06'4 3.9
2015-Mar-26 22:33N 29°44' W 095°02'10 9.7
2015-Mar-26 21:33N 29°35' W 094°56'1111.1
2015-Mar-26 20:33N 29°26' W 094°50'7 6.5
2015-Mar-26 19:31N 29°21' W 094°44'0 0.0
2015-Mar-26 14:13N 29°21' W 094°44'0 0.1
2015-Mar-26 11:28N 29°21' W 094°44'0 0.0
2015-Mar-26 10:31N 29°21' W 094°44'0 0.0
2015-Mar-26 09:31N 29°21' W 094°44'0 0.0
2015-Mar-26 08:31N 29°21' W 094°44'0 0.0
2015-Mar-26 07:28N 29°21' W 094°44'0 0.0
2015-Mar-26 05:19N 29°21' W 094°44'0 0.0
2015-Mar-26 04:25N 29°21' W 094°44'0 0.1
2015-Mar-26 01:16N 29°21' W 094°44'0 0.1
2015-Mar-25 21:19N 29°21' W 094°44'6 7.6
2015-Mar-25 20:33N 29°22' W 094°51'4 3.7
2015-Mar-25 19:33N 29°22' W 094°55'0 0.0
2015-Mar-24 21:13N 29°22' W 094°55'2 2.2
2015-Mar-24 20:31N 29°22' W 094°53'31 6.1
2015-Mar-24 15:32N 29°09' W 094°22'  
2015-Mar-19 16:23N 25°18' W 079°60'2412.9
2015-Mar-19 14:34N 25°41' W 080°01'1615.5
2015-Mar-19 13:34N 25°57' W 080°02'10 8.8
2015-Mar-19 12:25N 26°06' W 080°07'0 0.0
2015-Mar-19 11:25N 26°06' W 080°07'0 0.0
2015-Mar-19 10:33N 26°06' W 080°07'0 0.0
2015-Mar-19 09:24N 26°06' W 080°07'0 0.0
2015-Mar-19 08:27N 26°06' W 080°07'0 0.0
2015-Mar-19 07:27N 26°06' W 080°07'0 0.0
2015-Mar-19 06:24N 26°06' W 080°07'0 0.0
2015-Mar-19 05:30N 26°06' W 080°07'0 0.0
2015-Mar-19 04:27N 26°06' W 080°07'0 0.0
2015-Mar-19 03:30N 26°06' W 080°07'0 0.0
2015-Mar-19 02:33N 26°06' W 080°07'0 0.0
2015-Mar-19 01:30N 26°06' W 080°07'0 0.0
2015-Mar-19 00:33N 26°06' W 080°07'0 0.0
2015-Mar-18 23:33N 26°06' W 080°07'0 0.0
2015-Mar-18 22:21N 26°06' W 080°07'0 0.0
2015-Mar-18 21:33N 26°06' W 080°07'0 0.0
2015-Mar-18 20:33N 26°06' W 080°07'0 0.0
2015-Mar-18 19:21N 26°06' W 080°07'0 0.0
2015-Mar-18 18:27N 26°06' W 080°07'0 0.0
2015-Mar-18 17:27N 26°06' W 080°07'0 0.0
2015-Mar-18 16:27N 26°06' W 080°07'0 0.0
2015-Mar-18 15:30N 26°06' W 080°07'0 0.0
2015-Mar-18 14:30N 26°06' W 080°07'0 0.0
2015-Mar-18 13:30N 26°06' W 080°07'0 0.0
2015-Mar-18 12:33N 26°06' W 080°07'0 0.0
2015-Mar-18 11:33N 26°06' W 080°07'0 0.0
2015-Mar-18 10:33N 26°06' W 080°07'  

Dump ship's entire track history